Terminal Aerodrome Forecast
Issued by NWS Jackson, MS

Home | Current Version | Previous Version | Text Only | Print | Product List | Glossary On
Versions: 1 2 3 4 5 6 7 8 9 10 11 12 13 14 15 16
874
FTUS44 KJAN 302135 AAA
TAFHBG
TAF AMD
KHBG 302135Z 3022/3118 17008KT P6SM SCT050 SCT150
     FM310100 22004KT P6SM FEW090 SCT250
     FM310900 27003KT 5SM BR FEW025 SCT250
     FM311400 00000KT P6SM FEW250=

USA.gov is the U.S. government's official web portal to all federal, state and local government web resources and services.